createdAt,value
2022-10-29T00:01:40.061Z,10.20
2022-10-29T00:04:07.391Z,8.00
2022-10-29T00:06:34.650Z,7.33
2022-10-29T00:09:01.934Z,12.53
2022-10-29T00:11:29.403Z,6.00
2022-10-29T00:14:00.863Z,6.43
2022-10-29T00:16:29.598Z,7.57
2022-10-29T00:18:57.652Z,9.20
2022-10-29T00:21:26.315Z,11.63
2022-10-29T00:23:53.737Z,13.03
2022-10-29T00:26:22.216Z,7.33
2022-10-29T00:28:52.783Z,8.93
2022-10-29T00:31:20.490Z,6.53
2022-10-29T00:33:47.889Z,6.00
2022-10-29T00:36:19.555Z,10.83
2022-10-29T00:38:46.809Z,8.43
2022-10-29T00:41:15.267Z,10.60
2022-10-29T00:43:44.712Z,7.93
2022-10-29T00:46:17.781Z,8.70
2022-10-29T00:48:47.450Z,9.00
2022-10-29T00:51:16.204Z,8.40
2022-10-29T00:53:46.150Z,8.97
2022-10-29T00:56:13.905Z,7.87
2022-10-29T00:58:41.331Z,8.23
2022-10-29T01:01:08.906Z,10.27
2022-10-29T01:03:36.265Z,7.17
2022-10-29T01:06:04.098Z,10.07
2022-10-29T01:08:31.354Z,10.47
2022-10-29T01:11:17.661Z,7.87
2022-10-29T01:14:07.662Z,11.23
2022-10-29T01:16:47.309Z,8.20
2022-10-29T01:19:23.909Z,7.27
2022-10-29T01:21:53.989Z,6.30
2022-10-29T01:24:24.044Z,8.90
2022-10-29T01:26:59.488Z,8.87
2022-10-29T01:29:32.884Z,7.87
2022-10-29T01:32:03.298Z,8.07
2022-10-29T01:34:39.539Z,8.93
2022-10-29T01:37:20.896Z,7.87
2022-10-29T01:39:51.355Z,7.87
2022-10-29T01:42:33.247Z,9.20
2022-10-29T01:45:11.986Z,10.87
2022-10-29T01:47:42.644Z,11.70
2022-10-29T01:50:11.072Z,7.17
2022-10-29T01:52:39.685Z,6.43
2022-10-29T01:55:07.911Z,9.63
2022-10-29T01:57:36.373Z,8.70
2022-10-29T02:00:03.617Z,10.47
2022-10-29T02:02:48.492Z,8.57
2022-10-29T02:05:33.313Z,10.00
2022-10-29T02:08:13.505Z,8.00
2022-10-29T02:10:59.539Z,8.87
2022-10-29T02:13:31.467Z,8.37
2022-10-29T02:15:59.416Z,8.77
2022-10-29T02:18:26.683Z,7.40
2022-10-29T02:20:54.047Z,12.57
2022-10-29T02:23:21.551Z,9.83
2022-10-29T02:25:48.907Z,10.70
2022-10-29T02:28:16.355Z,10.30
2022-10-29T02:30:43.941Z,8.30
2022-10-29T02:33:11.342Z,7.93
2022-10-29T02:35:38.645Z,9.17
2022-10-29T02:38:05.884Z,10.60
2022-10-29T02:40:33.082Z,8.53
2022-10-29T02:43:01.341Z,7.77
2022-10-29T02:45:28.549Z,7.40
2022-10-29T02:47:56.225Z,8.80
2022-10-29T02:50:23.788Z,7.63
2022-10-29T02:52:51.240Z,7.37
2022-10-29T02:55:18.573Z,10.17
2022-10-29T02:57:49.223Z,10.20
2022-10-29T03:00:16.642Z,8.17
2022-10-29T03:02:44.189Z,8.77
2022-10-29T03:05:12.296Z,12.20
2022-10-29T03:07:39.566Z,8.80
2022-10-29T03:10:08.173Z,6.57
2022-10-29T03:12:35.559Z,7.67
2022-10-29T03:15:02.897Z,8.83
2022-10-29T03:17:30.151Z,9.23
2022-10-29T03:19:57.703Z,7.40
2022-10-29T03:22:24.919Z,6.97
2022-10-29T03:24:52.174Z,7.10
2022-10-29T03:27:19.427Z,8.07
2022-10-29T03:29:46.920Z,6.57
2022-10-29T03:32:14.299Z,4.43
2022-10-29T03:34:41.595Z,7.50
2022-10-29T03:37:08.915Z,4.87
2022-10-29T03:39:36.158Z,9.47
2022-10-29T03:42:04.065Z,7.77
2022-10-29T03:44:32.073Z,6.80
2022-10-29T03:46:59.306Z,10.63
2022-10-29T03:49:26.723Z,8.07
2022-10-29T03:51:53.966Z,7.70
2022-10-29T03:54:21.275Z,6.53
2022-10-29T03:56:48.531Z,7.60
2022-10-29T03:59:15.821Z,8.03
2022-10-29T04:01:43.730Z,7.83
2022-10-29T04:04:11.297Z,8.13
2022-10-29T04:06:38.611Z,5.90
2022-10-29T04:09:06.012Z,6.43
2022-10-29T04:11:34.386Z,10.88
2022-10-29T04:14:01.876Z,5.30
2022-10-29T04:16:29.272Z,8.25
2022-10-29T04:18:56.572Z,6.40
2022-10-29T04:29:46.343Z,10.10
2022-10-29T04:32:13.780Z,12.97
2022-10-29T04:34:41.031Z,13.80
2022-10-29T04:37:08.301Z,12.60
2022-10-29T04:39:35.618Z,9.93
2022-10-29T04:42:02.949Z,14.30
2022-10-29T04:44:30.322Z,12.57
2022-10-29T04:46:57.703Z,11.70
2022-10-29T04:49:25.133Z,11.15
2022-10-29T04:51:52.566Z,12.85
2022-10-29T04:54:19.953Z,10.75
2022-10-29T04:56:47.270Z,11.60
2022-10-29T04:59:14.830Z,8.27
2022-10-29T05:01:42.075Z,13.43
2022-10-29T05:04:09.567Z,10.65
2022-10-29T05:06:36.814Z,8.57
2022-10-29T05:09:04.385Z,8.95
2022-10-29T05:11:31.724Z,9.60
2022-10-29T05:13:59.165Z,7.35
2022-10-29T05:16:26.512Z,12.50
2022-10-29T05:18:53.868Z,9.05
2022-10-29T05:21:21.068Z,11.15
2022-10-29T05:23:48.431Z,8.55
2022-10-29T05:26:16.429Z,8.52
2022-10-29T05:28:43.693Z,8.93
2022-10-29T05:31:11.151Z,12.60
2022-10-29T05:33:38.434Z,7.95
2022-10-29T05:36:08.963Z,10.70
2022-10-29T05:38:36.309Z,9.23
2022-10-29T05:41:03.842Z,11.80
2022-10-29T05:43:31.413Z,4.53
2022-10-29T05:45:58.698Z,8.88
2022-10-29T05:48:29.201Z,7.97
2022-10-29T05:50:58.059Z,7.22
2022-10-29T05:53:26.790Z,10.98
2022-10-29T05:55:54.021Z,13.02
2022-10-29T05:58:21.290Z,9.90
2022-10-29T06:00:48.521Z,8.40
2022-10-29T06:03:20.172Z,9.90
2022-10-29T06:05:48.046Z,11.53
2022-10-29T06:08:15.456Z,13.20
2022-10-29T06:10:42.701Z,8.23
2022-10-29T06:13:11.214Z,5.38
2022-10-29T06:15:38.459Z,8.80
2022-10-29T06:18:07.261Z,9.38
2022-10-29T06:20:34.613Z,10.90
2022-10-29T06:23:02.020Z,9.93
2022-10-29T06:25:29.686Z,10.10
2022-10-29T06:28:04.275Z,8.18
2022-10-29T06:30:32.109Z,11.60
2022-10-29T06:33:00.567Z,5.97
2022-10-29T06:35:28.356Z,8.82
2022-10-29T06:37:59.655Z,12.82
2022-10-29T06:40:27.354Z,6.38
2022-10-29T06:43:04.731Z,10.57
2022-10-29T06:45:32.577Z,9.60
2022-10-29T06:48:00.158Z,11.20
2022-10-29T06:50:28.144Z,8.63
2022-10-29T06:53:01.423Z,9.77
2022-10-29T06:55:29.356Z,8.10
2022-10-29T06:57:57.811Z,7.82
2022-10-29T07:00:25.355Z,9.80
2022-10-29T07:02:53.305Z,6.93
2022-10-29T07:05:21.371Z,8.10
2022-10-29T07:07:48.668Z,14.20
2022-10-29T07:10:16.184Z,9.45
2022-10-29T07:12:44.142Z,11.23
2022-10-29T07:15:12.775Z,6.53
2022-10-29T07:17:40.340Z,7.97
2022-10-29T07:20:08.778Z,6.10
2022-10-29T07:22:36.472Z,12.25
2022-10-29T07:25:03.817Z,6.63
2022-10-29T07:27:31.124Z,6.80
2022-10-29T07:29:58.503Z,7.00
2022-10-29T07:32:25.761Z,8.30
2022-10-29T07:34:53.225Z,12.80
2022-10-29T07:37:20.752Z,10.13
2022-10-29T07:39:48.170Z,8.50
2022-10-29T07:42:15.418Z,11.80
2022-10-29T07:44:42.824Z,8.85
2022-10-29T07:47:10.294Z,11.23
2022-10-29T07:49:37.734Z,12.18
2022-10-29T07:52:05.291Z,7.60
2022-10-29T07:54:32.585Z,8.73
2022-10-29T07:56:59.937Z,8.93
2022-10-29T07:59:27.419Z,6.75
2022-10-29T08:01:54.803Z,7.80
2022-10-29T08:04:22.616Z,9.65
2022-10-29T08:06:49.904Z,9.93
2022-10-29T08:09:17.170Z,11.18
2022-10-29T08:11:44.451Z,11.07
2022-10-29T08:14:12.905Z,7.32
2022-10-29T08:16:40.246Z,8.50
2022-10-29T08:19:07.560Z,8.20
2022-10-29T08:21:34.940Z,12.73
2022-10-29T08:24:02.358Z,15.60
2022-10-29T08:26:29.581Z,6.20
2022-10-29T08:28:56.833Z,9.75
2022-10-29T08:31:24.172Z,8.38
2022-10-29T08:33:51.597Z,13.20
2022-10-29T08:36:18.979Z,8.23
2022-10-29T08:38:48.053Z,11.43
2022-10-29T08:41:27.436Z,13.13
2022-10-29T08:43:54.915Z,10.63
2022-10-29T08:46:26.079Z,7.38
2022-10-29T08:48:55.202Z,12.10
2022-10-29T08:51:39.436Z,10.13
2022-10-29T08:57:00.960Z,9.77
2022-10-29T08:59:30.500Z,10.38
2022-10-29T09:01:57.890Z,13.77
2022-10-29T09:04:35.491Z,18.10
2022-10-29T09:07:21.691Z,20.75
2022-10-29T09:10:03.753Z,15.95
2022-10-29T09:12:42.010Z,15.65
2022-10-29T09:15:18.452Z,9.60
2022-10-29T09:17:51.545Z,10.25
2022-10-29T09:20:34.309Z,9.00
2022-10-29T09:23:04.874Z,11.63
2022-10-29T09:25:34.433Z,6.90
2022-10-29T09:28:08.373Z,10.60
2022-10-29T09:30:41.276Z,8.65
2022-10-29T09:33:14.907Z,5.95
2022-10-29T09:35:47.881Z,9.73
2022-10-29T09:38:17.881Z,5.82
2022-10-29T09:40:45.264Z,9.45
2022-10-29T09:43:21.544Z,8.00
2022-10-29T09:45:58.254Z,8.45
2022-10-29T09:48:35.638Z,9.90
2022-10-29T09:51:02.996Z,7.90
2022-10-29T09:53:30.376Z,12.30
2022-10-29T09:55:57.746Z,7.72
2022-10-29T09:58:26.618Z,9.43
2022-10-29T10:00:55.063Z,6.93
2022-10-29T10:03:31.646Z,9.32
2022-10-29T10:05:59.058Z,12.43
2022-10-29T10:08:26.650Z,8.25
2022-10-29T10:10:55.741Z,9.13
2022-10-29T10:13:27.871Z,8.38
2022-10-29T10:15:56.842Z,10.43
2022-10-29T10:18:27.357Z,6.85
2022-10-29T10:21:14.894Z,10.25
2022-10-29T10:23:52.817Z,6.88
2022-10-29T10:26:40.107Z,6.97
2022-10-29T10:29:11.197Z,9.95
2022-10-29T10:31:38.902Z,8.68
2022-10-29T10:34:14.171Z,10.68
2022-10-29T10:36:46.760Z,9.38
2022-10-29T10:39:21.172Z,8.35
2022-10-29T10:41:49.807Z,9.15
2022-10-29T10:44:17.306Z,9.70
2022-10-29T10:46:45.447Z,9.73
2022-10-29T10:49:12.637Z,9.27
2022-10-29T10:51:43.842Z,7.70
2022-10-29T10:54:28.533Z,9.15
2022-10-29T10:57:00.033Z,7.72
2022-10-29T10:59:55.340Z,8.07
2022-10-29T11:02:34.944Z,11.23
2022-10-29T11:05:22.117Z,5.57
2022-10-29T11:08:01.852Z,8.52
2022-10-29T11:10:35.571Z,8.35
2022-10-29T11:13:06.002Z,9.57
2022-10-29T11:15:51.688Z,7.22
2022-10-29T11:18:22.349Z,8.13
2022-10-29T11:21:09.823Z,6.05
2022-10-29T11:23:47.059Z,4.65
2022-10-29T11:26:17.067Z,5.53
2022-10-29T11:28:49.656Z,7.22
2022-10-29T11:31:38.118Z,6.70
2022-10-29T11:34:24.208Z,7.68
2022-10-29T11:36:58.775Z,10.30
2022-10-29T11:39:44.900Z,11.52
2022-10-29T11:42:14.258Z,7.75
2022-10-29T11:44:41.816Z,12.43
2022-10-29T11:47:27.833Z,9.98
2022-10-29T11:50:04.297Z,5.78
2022-10-29T11:52:37.671Z,8.55
2022-10-29T11:55:08.280Z,8.73
2022-10-29T11:57:40.298Z,8.32
2022-10-29T12:00:18.506Z,8.43
2022-10-29T12:02:55.241Z,10.80
2022-10-29T12:05:25.791Z,5.85
2022-10-29T12:07:59.704Z,6.82
2022-10-29T12:10:30.377Z,7.82
2022-10-29T12:13:03.798Z,8.25
2022-10-29T12:15:36.049Z,7.95
2022-10-29T12:18:15.529Z,8.57
2022-10-29T12:20:47.240Z,5.57
2022-10-29T12:23:33.004Z,8.07
2022-10-29T12:26:10.455Z,9.40
2022-10-29T12:28:39.635Z,11.10
2022-10-29T12:31:25.307Z,7.60
2022-10-29T12:34:12.334Z,9.27
2022-10-29T12:36:44.344Z,8.32
2022-10-29T12:39:19.254Z,7.90
2022-10-29T12:41:48.917Z,9.07
2022-10-29T12:44:29.856Z,8.80
2022-10-29T12:47:06.350Z,12.48
2022-10-29T12:49:42.929Z,8.48
2022-10-29T12:52:22.403Z,13.52
2022-10-29T12:54:51.406Z,11.27
2022-10-29T12:57:18.732Z,9.55
2022-10-29T12:59:46.184Z,9.15
2022-10-29T13:02:23.647Z,9.07
2022-10-29T13:05:09.887Z,6.22
2022-10-29T13:07:37.490Z,9.98
2022-10-29T13:10:30.882Z,4.95
2022-10-29T13:13:16.788Z,83.43
2022-10-29T13:15:45.201Z,30.17
2022-10-29T13:18:12.510Z,9.73
2022-10-29T13:20:48.532Z,9.13
2022-10-29T13:23:25.095Z,10.05
2022-10-29T13:25:53.036Z,5.60
2022-10-29T13:28:20.338Z,8.68
2022-10-29T13:30:51.772Z,9.10
2022-10-29T13:33:28.901Z,9.25
2022-10-29T13:35:56.179Z,6.85
2022-10-29T13:38:52.379Z,7.47
2022-10-29T13:41:42.600Z,9.75
2022-10-29T13:44:24.322Z,8.68
2022-10-29T13:47:03.190Z,6.40
2022-10-29T13:49:32.274Z,5.63
2022-10-29T13:52:23.197Z,8.38
2022-10-29T13:54:53.488Z,7.85
2022-10-29T13:57:23.763Z,8.57
2022-10-29T13:59:51.025Z,7.90
2022-10-29T14:02:21.456Z,6.80
2022-10-29T14:04:51.193Z,9.07
2022-10-29T14:07:28.634Z,6.30
2022-10-29T14:09:56.990Z,6.20
2022-10-29T14:12:27.136Z,6.45
2022-10-29T14:14:59.001Z,8.43
2022-10-29T14:17:26.291Z,9.15
2022-10-29T14:19:53.783Z,8.63
2022-10-29T14:22:41.232Z,8.85
2022-10-29T14:25:27.630Z,5.18
2022-10-29T14:28:10.458Z,6.32
2022-10-29T14:30:37.732Z,8.32
2022-10-29T14:33:18.100Z,7.70
2022-10-29T14:35:45.753Z,13.00
2022-10-29T14:38:14.151Z,7.05
2022-10-29T14:40:42.738Z,7.18
2022-10-29T14:43:18.108Z,9.75
2022-10-29T14:45:45.429Z,9.40
2022-10-29T14:48:16.469Z,6.00
2022-10-29T14:51:01.904Z,10.82
2022-10-29T14:53:36.433Z,10.05
2022-10-29T14:56:09.176Z,7.57
2022-10-29T14:58:37.198Z,11.35
2022-10-29T15:01:07.755Z,8.63
2022-10-29T15:03:36.299Z,11.82
2022-10-29T15:06:12.855Z,11.35
2022-10-29T15:08:41.029Z,13.43
2022-10-29T15:11:28.486Z,15.90
2022-10-29T15:13:55.938Z,13.43
2022-10-29T15:16:23.344Z,9.68
2022-10-29T15:18:51.689Z,12.20
2022-10-29T15:21:23.080Z,14.68
2022-10-29T15:23:53.822Z,12.07
2022-10-29T15:26:22.046Z,12.35
2022-10-29T15:28:53.550Z,12.55
2022-10-29T15:31:39.666Z,6.95
2022-10-29T15:34:11.160Z,15.60
2022-10-29T15:36:47.820Z,15.00
2022-10-29T15:39:35.353Z,42.92
2022-10-29T15:42:03.228Z,45.25
2022-10-29T15:44:38.365Z,37.60
2022-10-29T15:47:22.524Z,26.45
2022-10-29T15:49:49.980Z,22.70
2022-10-29T15:52:18.923Z,25.42
2022-10-29T15:54:46.669Z,19.70
2022-10-29T15:57:15.308Z,16.00
2022-10-29T15:59:43.065Z,14.50
2022-10-29T16:02:19.533Z,17.48
2022-10-29T16:04:47.147Z,15.27
2022-10-29T16:07:15.095Z,15.02
2022-10-29T16:09:49.940Z,21.30
2022-10-29T16:12:17.424Z,18.75
2022-10-29T16:14:44.711Z,17.17
2022-10-29T16:17:16.412Z,12.02
2022-10-29T16:19:43.835Z,17.48
2022-10-29T16:22:15.407Z,12.63
2022-10-29T16:24:42.662Z,14.77
2022-10-29T16:27:17.227Z,10.68
2022-10-29T16:29:44.583Z,15.23
2022-10-29T16:32:16.091Z,10.52
2022-10-29T16:34:43.709Z,10.93
2022-10-29T16:37:15.197Z,12.05
2022-10-29T16:39:45.813Z,9.38
2022-10-29T16:42:28.980Z,19.20
2022-10-29T16:44:56.382Z,18.05
2022-10-29T16:47:24.772Z,22.30
2022-10-29T16:49:52.228Z,30.35
2022-10-29T16:52:22.494Z,29.02
2022-10-29T16:54:51.373Z,26.98
2022-10-29T16:57:18.733Z,23.40
2022-10-29T16:59:46.171Z,25.77
2022-10-29T17:02:13.370Z,26.58
2022-10-29T17:04:40.732Z,30.88
2022-10-29T17:07:08.264Z,27.67
2022-10-29T17:09:37.061Z,25.35
2022-10-29T17:12:04.551Z,26.63
2022-10-29T17:14:31.978Z,20.25
2022-10-29T17:17:01.746Z,15.73
2022-10-29T17:19:29.420Z,14.57
2022-10-29T17:21:59.908Z,16.67
2022-10-29T17:24:27.718Z,15.95
2022-10-29T17:26:55.180Z,18.75
2022-10-29T17:29:22.756Z,11.85
2022-10-29T17:31:50.198Z,14.70
2022-10-29T17:34:17.780Z,14.35
2022-10-29T17:36:45.196Z,17.15
2022-10-29T17:39:12.591Z,15.82
2022-10-29T17:41:39.990Z,17.70
2022-10-29T17:44:07.319Z,20.42
2022-10-29T17:46:34.622Z,13.73
2022-10-29T17:49:03.069Z,17.13
2022-10-29T17:51:30.475Z,19.95
2022-10-29T17:53:57.776Z,19.40
2022-10-29T17:56:25.009Z,16.70
2022-10-29T17:58:52.328Z,19.33
2022-10-29T18:01:19.841Z,17.50
2022-10-29T18:03:47.165Z,10.05
2022-10-29T18:06:14.714Z,9.73
2022-10-29T18:08:42.928Z,11.20
2022-10-29T18:11:10.248Z,13.95
2022-10-29T18:13:41.301Z,17.05
2022-10-29T18:16:19.161Z,16.95
2022-10-29T18:19:00.955Z,14.63
2022-10-29T18:21:30.209Z,19.98
2022-10-29T18:23:58.101Z,19.60
2022-10-29T18:26:33.182Z,10.93
2022-10-29T18:29:01.360Z,19.20
2022-10-29T18:31:30.622Z,15.82
2022-10-29T18:33:58.709Z,16.58
2022-10-29T18:36:26.145Z,18.20
2022-10-29T18:38:54.367Z,15.45
2022-10-29T18:41:22.260Z,22.13
2022-10-29T18:43:49.886Z,19.25
2022-10-29T18:46:17.477Z,18.77
2022-10-29T18:48:47.152Z,15.70
2022-10-29T18:51:15.827Z,16.73
2022-10-29T18:53:43.116Z,14.73
2022-10-29T18:56:14.790Z,14.95
2022-10-29T18:58:42.405Z,12.32
2022-10-29T19:01:11.063Z,17.73
2022-10-29T19:03:38.771Z,21.65
2022-10-29T19:06:07.877Z,20.58
2022-10-29T19:08:36.343Z,20.80
2022-10-29T19:11:04.806Z,16.17
2022-10-29T19:13:32.704Z,14.55
2022-10-29T19:16:03.906Z,13.00
2022-10-29T19:18:32.102Z,9.98
2022-10-29T19:21:06.722Z,9.25
2022-10-29T19:23:34.720Z,13.05
2022-10-29T19:26:09.526Z,12.80
2022-10-29T19:28:37.069Z,13.27
2022-10-29T19:31:05.447Z,13.18
2022-10-29T19:33:33.293Z,11.40
2022-10-29T19:36:00.698Z,13.63
2022-10-29T19:38:28.324Z,13.77
2022-10-29T19:40:57.072Z,16.38
2022-10-29T19:43:24.773Z,15.27
2022-10-29T19:45:52.348Z,17.58
2022-10-29T19:48:19.723Z,13.63
2022-10-29T19:50:47.685Z,19.90
2022-10-29T19:53:15.095Z,20.60
2022-10-29T19:55:45.723Z,18.02
2022-10-29T19:58:13.542Z,14.85
2022-10-29T20:00:40.819Z,11.80
2022-10-29T20:03:08.168Z,11.82
2022-10-29T20:05:38.923Z,9.93
2022-10-29T20:08:09.972Z,13.32
2022-10-29T20:10:43.445Z,11.70
2022-10-29T20:13:11.094Z,14.18
2022-10-29T20:15:41.598Z,12.98
2022-10-29T20:18:09.000Z,18.33
2022-10-29T20:20:36.341Z,13.55
2022-10-29T20:23:03.658Z,21.98
2022-10-29T20:25:31.037Z,17.63
2022-10-29T20:27:59.552Z,17.30
2022-10-29T20:30:26.795Z,12.88
2022-10-29T20:32:54.378Z,14.90
2022-10-29T20:35:22.315Z,16.48
2022-10-29T20:37:49.865Z,15.95
2022-10-29T20:40:17.118Z,16.65
2022-10-29T20:42:44.486Z,14.55
2022-10-29T20:45:11.802Z,16.83
2022-10-29T20:47:39.371Z,13.02
2022-10-29T20:50:06.792Z,15.15
2022-10-29T20:52:34.046Z,10.45
2022-10-29T20:55:01.363Z,11.32
2022-10-29T20:57:28.616Z,12.95
2022-10-29T20:59:56.148Z,10.75
2022-10-29T21:02:23.634Z,11.82
2022-10-29T21:04:51.111Z,14.07
2022-10-29T21:07:19.513Z,10.17
2022-10-29T21:09:48.565Z,15.65
2022-10-29T21:12:15.897Z,13.57
2022-10-29T21:14:43.218Z,15.90
2022-10-29T21:17:11.191Z,13.10
2022-10-29T21:19:38.492Z,13.33
2022-10-29T21:22:08.957Z,13.07
2022-10-29T21:24:38.294Z,19.97
2022-10-29T21:27:10.005Z,14.30
2022-10-29T21:29:37.317Z,15.83
2022-10-29T21:32:05.647Z,15.55
2022-10-29T21:34:32.874Z,17.42
2022-10-29T21:37:00.161Z,13.48
2022-10-29T21:39:27.880Z,13.02
2022-10-29T21:41:56.088Z,17.35
2022-10-29T21:44:24.572Z,10.13
2022-10-29T21:46:53.428Z,15.95
2022-10-29T21:49:24.142Z,12.20
2022-10-29T21:51:52.542Z,10.83
2022-10-29T21:54:22.001Z,16.13
2022-10-29T21:56:52.516Z,11.73
2022-10-29T21:59:24.726Z,15.00
2022-10-29T22:01:52.207Z,14.23
2022-10-29T22:04:19.774Z,15.20
2022-10-29T22:06:46.965Z,11.77
2022-10-29T22:09:14.670Z,14.20
2022-10-29T22:11:41.920Z,17.33
2022-10-29T22:14:09.195Z,15.45
2022-10-29T22:16:36.535Z,15.83
2022-10-29T22:19:04.241Z,12.77
2022-10-29T22:21:32.573Z,17.50
2022-10-29T22:24:00.070Z,29.70
2022-10-29T22:26:28.950Z,35.38
2022-10-29T22:28:56.814Z,21.05
2022-10-29T22:31:24.703Z,14.60
2022-10-29T22:33:52.508Z,17.13
2022-10-29T22:36:24.007Z,13.67
2022-10-29T22:38:55.449Z,11.27
2022-10-29T22:41:23.254Z,12.17
2022-10-29T22:43:50.645Z,8.83
2022-10-29T22:46:18.578Z,10.73
2022-10-29T22:48:46.336Z,14.70
2022-10-29T22:51:15.282Z,9.60
2022-10-29T22:53:43.093Z,13.00
2022-10-29T22:56:29.507Z,15.90
2022-10-29T22:58:57.297Z,20.93
2022-10-29T23:01:26.820Z,11.07
2022-10-29T23:03:54.499Z,14.50
2022-10-29T23:06:23.449Z,13.07
2022-10-29T23:08:54.387Z,11.60
2022-10-29T23:11:23.248Z,13.53
2022-10-29T23:13:52.589Z,13.73
2022-10-29T23:16:20.168Z,14.03
2022-10-29T23:18:51.459Z,11.73
2022-10-29T23:21:19.079Z,14.45
2022-10-29T23:23:47.494Z,13.87
2022-10-29T23:26:15.383Z,14.67
2022-10-29T23:28:43.304Z,14.87
2022-10-29T23:31:15.354Z,13.37
2022-10-29T23:33:46.690Z,20.17
2022-10-29T23:36:14.881Z,17.30
2022-10-29T23:38:42.223Z,17.43
2022-10-29T23:41:10.292Z,12.90
2022-10-29T23:43:38.060Z,9.87
2022-10-29T23:46:05.675Z,15.37
2022-10-29T23:48:33.452Z,15.97
2022-10-29T23:51:00.789Z,6.57
2022-10-29T23:53:28.398Z,9.60
2022-10-29T23:55:55.631Z,12.63
2022-10-29T23:58:22.970Z,8.87
